createdAt,value
2016-11-03T00:00:10.924Z,0
2016-11-03T00:10:10.620Z,0
2016-11-03T00:15:12.459Z,0
2016-11-03T00:20:10.242Z,0
2016-11-03T00:25:08.531Z,0
2016-11-03T00:30:04.821Z,0
2016-11-03T00:35:06.657Z,0
2016-11-03T00:40:04.538Z,0
2016-11-03T00:45:03.220Z,0
2016-11-03T00:49:59.412Z,0
2016-11-03T00:54:58.424Z,0
2016-11-03T00:59:56.883Z,0
2016-11-03T01:09:57.892Z,0
2016-11-03T01:20:02.485Z,0
2016-11-03T01:25:00.044Z,0
2016-11-03T01:29:57.762Z,0
2016-11-03T01:35:02.517Z,0
2016-11-03T01:45:01.821Z,0
2016-11-03T01:50:00.358Z,0
2016-11-03T01:54:56.872Z,0
2016-11-03T01:59:53.336Z,0
2016-11-03T02:04:50.375Z,0
2016-11-03T02:14:52.460Z,0
2016-11-03T02:24:52.948Z,0
2016-11-03T02:29:49.457Z,0
2016-11-03T02:34:46.172Z,0
2016-11-03T02:39:47.051Z,0
2016-11-03T02:44:45.342Z,0
2016-11-03T02:49:44.559Z,0
2016-11-03T02:54:48.791Z,0
2016-11-03T02:59:45.141Z,0
2016-11-03T03:04:41.565Z,0
2016-11-03T03:09:38.229Z,0
2016-11-03T03:14:34.697Z,0
2016-11-03T03:19:31.456Z,0
2016-11-03T03:24:32.964Z,0
2016-11-03T03:29:29.343Z,0
2016-11-03T03:34:26.785Z,0
2016-11-03T03:39:23.233Z,0
2016-11-03T03:44:20.951Z,0
2016-11-03T03:49:20.238Z,0
2016-11-03T03:54:18.797Z,0
2016-11-03T03:59:16.168Z,0
2016-11-03T04:04:13.672Z,0
2016-11-03T04:09:16.265Z,0
2016-11-03T04:14:13.099Z,0
2016-11-03T04:19:17.372Z,0
2016-11-03T04:39:21.380Z,0
2016-11-03T04:44:18.442Z,0
2016-11-03T04:49:14.712Z,0
2016-11-03T04:54:11.102Z,0
2016-11-03T04:59:11.055Z,0
2016-11-03T05:04:08.325Z,0
2016-11-03T05:09:05.955Z,0
2016-11-03T05:14:02.269Z,0
2016-11-03T05:18:58.705Z,0
2016-11-03T05:23:55.633Z,0
2016-11-03T05:28:53.549Z,0
2016-11-03T05:33:49.794Z,0
2016-11-03T05:38:46.759Z,0
2016-11-03T05:43:45.917Z,0
2016-11-03T05:48:42.035Z,0
2016-11-03T05:53:42.704Z,0
2016-11-03T05:58:40.942Z,0
2016-11-03T06:08:42.999Z,0
2016-11-03T06:13:39.354Z,0
2016-11-03T06:18:35.927Z,0
2016-11-03T06:23:32.517Z,0
2016-11-03T06:28:29.269Z,0
2016-11-03T06:33:25.206Z,5
2016-11-03T06:38:21.857Z,5
2016-11-03T06:43:18.320Z,10
2016-11-03T06:48:15.280Z,15
2016-11-03T06:53:12.800Z,20
2016-11-03T06:58:08.954Z,20
2016-11-03T07:03:07.998Z,20
2016-11-03T07:08:04.342Z,20
2016-11-03T07:13:02.729Z,20
2016-11-03T07:17:59.193Z,20
2016-11-03T07:22:55.319Z,25
2016-11-03T07:27:52.085Z,30
2016-11-03T07:32:48.775Z,30
2016-11-03T07:37:46.399Z,25
2016-11-03T07:42:47.299Z,35
2016-11-03T07:47:43.048Z,40
2016-11-03T07:52:39.723Z,40
2016-11-03T07:57:37.320Z,35
2016-11-03T08:02:33.232Z,45
2016-11-03T08:07:29.691Z,55
2016-11-03T08:12:26.310Z,65
2016-11-03T08:17:22.893Z,65
2016-11-03T08:22:19.322Z,60
2016-11-03T08:27:15.887Z,65
2016-11-03T08:32:12.488Z,80
2016-11-03T08:37:09.217Z,115
2016-11-03T08:42:06.338Z,90
2016-11-03T08:47:02.700Z,80
2016-11-03T08:51:58.796Z,105
2016-11-03T08:56:55.134Z,100
2016-11-03T09:01:51.548Z,105
2016-11-03T09:06:48.168Z,140
2016-11-03T09:11:44.825Z,140
2016-11-03T09:16:41.371Z,130
2016-11-03T09:21:38.136Z,160
2016-11-03T09:26:34.541Z,165
2016-11-03T09:31:32.380Z,150
2016-11-03T09:36:28.724Z,115
2016-11-03T09:41:26.024Z,120
2016-11-03T09:46:22.742Z,160
2016-11-03T09:51:19.443Z,155
2016-11-03T09:56:16.062Z,215
2016-11-03T10:01:13.310Z,155
2016-11-03T10:06:09.461Z,135
2016-11-03T10:11:05.944Z,165
2016-11-03T10:16:02.566Z,155
2016-11-03T10:20:58.975Z,165
2016-11-03T10:25:55.529Z,175
2016-11-03T10:30:52.122Z,170
2016-11-03T10:35:48.906Z,185
2016-11-03T10:40:45.581Z,200
2016-11-03T10:45:42.199Z,205
2016-11-03T10:50:39.700Z,190
2016-11-03T10:55:35.812Z,205
2016-11-03T11:00:32.308Z,250
2016-11-03T11:05:30.079Z,165
2016-11-03T11:10:25.931Z,195
2016-11-03T11:15:22.303Z,185
2016-11-03T11:20:18.381Z,145
2016-11-03T11:25:15.201Z,140
2016-11-03T11:30:12.856Z,235
2016-11-03T11:35:09.160Z,155
2016-11-03T11:40:06.197Z,215
2016-11-03T11:45:02.743Z,245
2016-11-03T11:49:59.478Z,215
2016-11-03T11:54:56.053Z,170
2016-11-03T11:59:52.604Z,165
2016-11-03T12:04:48.874Z,195
2016-11-03T12:09:45.245Z,180
2016-11-03T12:14:41.819Z,165
2016-11-03T12:19:38.714Z,145
2016-11-03T12:24:35.572Z,150
2016-11-03T12:29:32.695Z,130
2016-11-03T12:34:28.978Z,170
2016-11-03T12:39:25.788Z,195
2016-11-03T12:44:22.306Z,155
2016-11-03T12:49:18.851Z,140
2016-11-03T12:54:15.573Z,130
2016-11-03T12:59:12.018Z,140
2016-11-03T13:04:08.558Z,135
2016-11-03T13:09:05.011Z,135
2016-11-03T13:14:01.501Z,125
2016-11-03T13:18:58.828Z,150
2016-11-03T13:23:55.544Z,175
2016-11-03T13:28:52.122Z,170
2016-11-03T13:33:48.624Z,120
2016-11-03T13:38:45.055Z,100
2016-11-03T13:43:41.350Z,105
2016-11-03T13:48:37.928Z,90
2016-11-03T13:53:34.351Z,75
2016-11-03T13:58:30.432Z,85
2016-11-03T14:03:26.759Z,90
2016-11-03T14:08:25.850Z,95
2016-11-03T14:13:21.512Z,95
2016-11-03T14:18:18.057Z,85
2016-11-03T14:23:14.720Z,75
2016-11-03T14:28:11.076Z,55
2016-11-03T14:33:07.328Z,50
2016-11-03T14:38:04.317Z,45
2016-11-03T14:43:00.639Z,45
2016-11-03T14:47:58.073Z,45
2016-11-03T14:52:54.603Z,40
2016-11-03T14:57:51.017Z,40
2016-11-03T15:02:47.273Z,35
2016-11-03T15:07:43.651Z,30
2016-11-03T15:12:40.111Z,25
2016-11-03T15:17:37.395Z,25
2016-11-03T15:22:33.777Z,20
2016-11-03T15:27:31.474Z,20
2016-11-03T15:32:27.498Z,15
2016-11-03T15:37:24.260Z,10
2016-11-03T15:42:20.654Z,10
2016-11-03T15:47:17.115Z,5
2016-11-03T15:52:13.552Z,5
2016-11-03T15:57:10.356Z,0
2016-11-03T16:02:08.131Z,0
2016-11-03T16:07:04.509Z,0
2016-11-03T16:12:01.291Z,0
2016-11-03T16:16:58.065Z,0
2016-11-03T16:21:54.989Z,0
2016-11-03T16:26:52.687Z,0
2016-11-03T16:31:49.046Z,0
2016-11-03T16:36:45.370Z,0
2016-11-03T16:41:42.330Z,0
2016-11-03T16:46:38.870Z,0
2016-11-03T16:51:36.670Z,0
2016-11-03T16:56:36.764Z,0
2016-11-03T17:01:32.888Z,0
2016-11-03T17:06:32.335Z,0
2016-11-03T17:11:28.707Z,0
2016-11-03T17:16:24.940Z,0
2016-11-03T17:21:21.507Z,0
2016-11-03T17:26:18.447Z,0
2016-11-03T17:31:15.232Z,0
2016-11-03T17:36:11.567Z,0
2016-11-03T17:41:09.057Z,0
2016-11-03T17:46:06.928Z,0
2016-11-03T17:51:03.148Z,0
2016-11-03T17:55:59.829Z,0
2016-11-03T18:00:56.041Z,0
2016-11-03T18:05:52.820Z,0
2016-11-03T18:10:49.537Z,0
2016-11-03T18:15:46.003Z,0
2016-11-03T18:20:43.810Z,0
2016-11-03T18:25:39.691Z,0
2016-11-03T18:30:37.122Z,0
2016-11-03T18:35:34.592Z,0
2016-11-03T18:40:30.297Z,0
2016-11-03T18:45:27.402Z,0
2016-11-03T18:50:24.072Z,0
2016-11-03T18:55:21.175Z,0
2016-11-03T19:00:17.869Z,0
2016-11-03T19:05:14.309Z,0
2016-11-03T19:10:11.029Z,0
2016-11-03T19:15:08.349Z,0
2016-11-03T19:20:04.928Z,0
2016-11-03T19:25:01.412Z,0
2016-11-03T19:29:58.404Z,0
2016-11-03T19:34:56.085Z,0
2016-11-03T19:39:52.263Z,0
2016-11-03T19:44:48.757Z,0
2016-11-03T19:49:45.925Z,0
2016-11-03T19:54:42.871Z,0
2016-11-03T19:59:39.312Z,0
2016-11-03T20:04:37.191Z,0
2016-11-03T20:09:33.095Z,0
2016-11-03T20:14:30.358Z,0
2016-11-03T20:19:27.478Z,0
2016-11-03T20:24:24.293Z,0
2016-11-03T20:29:21.183Z,0
2016-11-03T20:34:18.831Z,0
2016-11-03T20:39:16.289Z,0
2016-11-03T20:44:13.842Z,0
2016-11-03T20:49:10.767Z,0
2016-11-03T20:54:07.895Z,0
2016-11-03T20:59:04.895Z,0
2016-11-03T21:04:02.407Z,0
2016-11-03T21:08:58.466Z,0
2016-11-03T21:13:55.010Z,0
2016-11-03T21:18:51.505Z,0
2016-11-03T21:23:47.844Z,0
2016-11-03T21:28:44.483Z,0
2016-11-03T21:33:41.808Z,0
2016-11-03T21:38:38.247Z,0
2016-11-03T21:48:35.390Z,0
2016-11-03T21:53:31.841Z,0
2016-11-03T21:58:28.362Z,0
2016-11-03T22:03:25.414Z,0
2016-11-03T22:08:21.870Z,0
2016-11-03T22:13:18.438Z,0
2016-11-03T22:18:15.192Z,0
2016-11-03T22:23:12.175Z,0
2016-11-03T22:28:09.054Z,0
2016-11-03T22:38:11.418Z,0
2016-11-03T22:43:07.954Z,0
2016-11-03T22:48:04.754Z,0
2016-11-03T22:53:01.356Z,0
2016-11-03T22:57:58.804Z,0
2016-11-03T23:02:55.240Z,0
2016-11-03T23:12:51.714Z,0
2016-11-03T23:17:48.678Z,0
2016-11-03T23:22:45.280Z,0
2016-11-03T23:27:41.758Z,0
2016-11-03T23:32:38.339Z,0
2016-11-03T23:37:34.371Z,0
2016-11-03T23:42:31.141Z,0
2016-11-03T23:47:27.403Z,0
2016-11-03T23:52:23.820Z,0
2016-11-03T23:57:20.541Z,0
